Hector International Airport Fargo US
ICAO: KFAR
IATA: FAR
Category: Medium
Scheduled Services: Yes

Elevation: 902 ft
TransAlt. 18000 ft.

Airport Communications:
FARGO APP/DEP:120.4
ATIS:124.5
GND/CLNC DEL:121.9
GRAND FORKS RDO:122.425
FARGO TWR:133.8
UNICOM:122.95

KFAR Zoom In..

If you have problems with the map follow the link
https://www.worldairports.se/pages/airport.php?
ICAO=KFAR

Runways:

(A) RW 09 length 6302 ft width 100 ft
---- / hdg 86

(B) RW 13 length 3801 ft width 75 ft
---- / hdg 133

(C) RW 18 length 9001 ft width 150 ft
ILS 108.90 / hdg 176

(D) RW 27 length 6302 ft width 100 ft
---- / hdg 266

(E) RW 31 length 3801 ft width 75 ft
---- / hdg 313

(F) RW 36 length 9001 ft width 150 ft
ILS 110.30 / hdg 356

Location; KFAR
Day. 14 / Time. 20.53 Zulu
* Altimeter: 30.11
* Temperature: 01° c. 33.8°f.
* Wind from: 190° Speed 08 kn.
Dewpoint: -03° c.
Visibility: 10 Statute Miles.
Clouds: Clear (automated report).

KFAR 142053Z 19008KT 10SM CLR 01/M03 A3011 RMK AO2 SLP208 T00111028 53001


Wind From 190°
Speed 08 kn.

 
 
jpsmedia.com for Web Design worldairports.se 2018   terms of use